createdAt,value
2022-08-28T00:00:35.861Z,22.03
2022-08-28T00:03:02.516Z,21.98
2022-08-28T00:05:31.260Z,21.96
2022-08-28T00:07:59.831Z,21.91
2022-08-28T00:10:27.483Z,21.98
2022-08-28T00:12:55.801Z,21.99
2022-08-28T00:15:27.373Z,21.83
2022-08-28T00:17:53.942Z,21.78
2022-08-28T00:20:21.075Z,21.70
2022-08-28T00:22:48.622Z,21.67
2022-08-28T00:25:16.649Z,21.83
2022-08-28T00:27:55.601Z,21.90
2022-08-28T00:30:28.201Z,21.88
2022-08-28T00:32:57.410Z,21.97
2022-08-28T00:35:24.126Z,22.06
2022-08-28T00:37:51.458Z,21.95
2022-08-28T00:40:30.527Z,21.92
2022-08-28T00:43:01.640Z,21.88
2022-08-28T00:45:28.990Z,21.84
2022-08-28T00:47:55.480Z,21.80
2022-08-28T00:50:25.191Z,21.78
2022-08-28T00:52:55.414Z,21.74
2022-08-28T00:55:24.140Z,21.77
2022-08-28T00:57:54.129Z,21.63
2022-08-28T01:00:33.841Z,21.68
2022-08-28T01:03:01.085Z,21.61
2022-08-28T01:05:28.880Z,21.55
2022-08-28T01:07:58.839Z,21.55
2022-08-28T01:10:28.423Z,21.47
2022-08-28T01:12:56.740Z,21.38
2022-08-28T01:15:28.357Z,21.38
2022-08-28T01:17:58.383Z,21.39
2022-08-28T01:20:28.163Z,21.34
2022-08-28T01:23:00.937Z,21.33
2022-08-28T01:25:31.228Z,21.31
2022-08-28T01:27:58.688Z,21.22
2022-08-28T01:30:25.595Z,21.22
2022-08-28T01:32:54.586Z,21.18
2022-08-28T01:35:27.309Z,21.10
2022-08-28T01:37:55.723Z,21.06
2022-08-28T01:40:31.597Z,21.04
2022-08-28T01:43:10.195Z,20.96
2022-08-28T01:45:37.951Z,21.01
2022-08-28T01:48:06.269Z,20.98
2022-08-28T01:50:34.184Z,20.91
2022-08-28T01:53:01.318Z,20.86
2022-08-28T01:55:28.472Z,20.80
2022-08-28T01:57:56.943Z,20.74
2022-08-28T02:00:27.489Z,20.66
2022-08-28T02:02:57.067Z,20.56
2022-08-28T02:05:25.361Z,20.47
2022-08-28T02:07:52.504Z,20.39
2022-08-28T02:10:22.483Z,20.37
2022-08-28T02:12:50.245Z,20.32
2022-08-28T02:15:17.727Z,20.15
2022-08-28T02:17:45.363Z,20.10
2022-08-28T02:20:12.005Z,20.06
2022-08-28T02:22:38.584Z,20.05
2022-08-28T02:25:06.431Z,19.95
2022-08-28T02:27:33.216Z,19.87
2022-08-28T02:29:59.966Z,19.86
2022-08-28T02:32:26.673Z,19.85
2022-08-28T02:34:53.489Z,19.73
2022-08-28T02:37:20.641Z,19.74
2022-08-28T02:39:47.785Z,19.72
2022-08-28T02:42:14.316Z,19.62
2022-08-28T02:44:42.678Z,19.65
2022-08-28T02:47:09.202Z,19.61
2022-08-28T02:49:36.452Z,19.56
2022-08-28T02:52:03.985Z,19.49
2022-08-28T02:54:31.190Z,19.43
2022-08-28T02:56:58.856Z,19.47
2022-08-28T02:59:25.768Z,19.50
2022-08-28T03:01:52.527Z,19.43
2022-08-28T03:04:19.375Z,19.41
2022-08-28T03:06:46.015Z,19.35
2022-08-28T03:09:12.550Z,19.34
2022-08-28T03:11:41.219Z,19.31
2022-08-28T03:14:07.989Z,19.35
2022-08-28T03:16:34.583Z,19.25
2022-08-28T03:19:01.356Z,19.27
2022-08-28T03:21:28.034Z,19.16
2022-08-28T03:23:55.271Z,19.14
2022-08-28T03:26:24.037Z,19.10
2022-08-28T03:28:53.287Z,19.06
2022-08-28T03:31:23.549Z,19.03
2022-08-28T03:33:50.634Z,19.04
2022-08-28T03:36:21.593Z,19.02
2022-08-28T03:38:48.905Z,18.98
2022-08-28T03:41:18.118Z,18.92
2022-08-28T03:43:45.427Z,18.93
2022-08-28T03:46:22.722Z,19.00
2022-08-28T03:48:50.468Z,18.97
2022-08-28T03:51:28.000Z,18.93
2022-08-28T03:53:58.579Z,18.86
2022-08-28T03:56:26.954Z,18.87
2022-08-28T03:58:59.102Z,18.82
2022-08-28T04:01:26.612Z,18.83
2022-08-28T04:03:53.480Z,18.90
2022-08-28T04:06:20.185Z,18.85
2022-08-28T04:08:47.738Z,18.82
2022-08-28T04:11:15.197Z,18.75
2022-08-28T04:13:42.308Z,18.86
2022-08-28T04:16:12.907Z,18.91
2022-08-28T04:18:41.457Z,18.93
2022-08-28T04:21:21.252Z,18.89
2022-08-28T04:23:47.847Z,18.86
2022-08-28T04:26:17.819Z,18.96
2022-08-28T04:28:45.316Z,19.04
2022-08-28T04:31:11.950Z,19.02
2022-08-28T04:33:39.182Z,19.08
2022-08-28T04:36:09.002Z,19.15
2022-08-28T04:38:39.255Z,19.20
2022-08-28T04:41:12.700Z,19.15
2022-08-28T04:43:39.169Z,19.20
2022-08-28T04:46:08.107Z,19.26
2022-08-28T04:48:35.516Z,19.31
2022-08-28T04:51:02.017Z,19.43
2022-08-28T04:53:29.571Z,19.45
2022-08-28T04:55:58.961Z,19.43
2022-08-28T04:58:27.549Z,19.51
2022-08-28T05:00:54.957Z,19.63
2022-08-28T05:03:22.081Z,19.65
2022-08-28T05:05:51.769Z,19.71
2022-08-28T05:08:20.511Z,19.68
2022-08-28T05:10:47.581Z,19.72
2022-08-28T05:13:19.157Z,19.75
2022-08-28T05:15:47.785Z,19.92
2022-08-28T05:18:15.440Z,20.01
2022-08-28T05:20:44.637Z,20.07
2022-08-28T05:23:12.337Z,20.24
2022-08-28T05:25:41.912Z,20.49
2022-08-28T05:28:12.320Z,20.56
2022-08-28T05:30:40.610Z,20.66
2022-08-28T05:33:08.480Z,20.70
2022-08-28T05:35:37.444Z,20.73
2022-08-28T05:38:05.008Z,20.83
2022-08-28T05:40:31.785Z,20.93
2022-08-28T05:42:59.010Z,20.96
2022-08-28T05:45:25.753Z,21.10
2022-08-28T05:47:52.240Z,21.18
2022-08-28T05:50:19.255Z,21.33
2022-08-28T05:52:45.908Z,21.36
2022-08-28T05:55:13.191Z,21.48
2022-08-28T05:57:40.161Z,21.58
2022-08-28T06:00:09.776Z,21.54
2022-08-28T06:02:36.217Z,21.63
2022-08-28T06:05:02.788Z,21.77
2022-08-28T06:07:29.421Z,21.81
2022-08-28T06:09:55.913Z,21.85
2022-08-28T06:12:22.429Z,22.04
2022-08-28T06:14:49.715Z,22.07
2022-08-28T06:17:16.545Z,22.08
2022-08-28T06:19:50.079Z,22.15
2022-08-28T06:22:16.828Z,22.21
2022-08-28T06:24:43.665Z,22.34
2022-08-28T06:27:10.193Z,22.49
2022-08-28T06:29:36.749Z,22.63
2022-08-28T06:32:05.015Z,22.70
2022-08-28T06:34:31.860Z,22.75
2022-08-28T06:36:58.690Z,22.88
2022-08-28T06:39:25.151Z,23.12
2022-08-28T06:41:51.720Z,22.97
2022-08-28T06:44:20.100Z,23.25
2022-08-28T06:46:48.665Z,23.99
2022-08-28T06:49:15.573Z,26.31
2022-08-28T06:51:42.276Z,27.94
2022-08-28T06:54:09.400Z,28.38
2022-08-28T06:56:36.545Z,29.23
2022-08-28T06:59:03.448Z,30.82
2022-08-28T07:01:33.132Z,32.80
2022-08-28T07:04:04.010Z,34.44
2022-08-28T07:06:32.898Z,35.50
2022-08-28T07:08:59.755Z,36.76
2022-08-28T07:11:29.077Z,36.89
2022-08-28T07:13:57.557Z,37.30
2022-08-28T07:16:27.263Z,37.91
2022-08-28T07:18:54.203Z,38.74
2022-08-28T07:21:21.039Z,39.32
2022-08-28T07:23:47.891Z,39.39
2022-08-28T07:26:19.562Z,39.05
2022-08-28T07:28:47.407Z,39.04
2022-08-28T07:31:18.619Z,39.04
2022-08-28T07:33:45.723Z,39.37
2022-08-28T07:36:29.001Z,40.26
2022-08-28T07:38:58.663Z,40.78
2022-08-28T07:41:28.660Z,40.91
2022-08-28T07:44:13.720Z,40.66
2022-08-28T07:46:40.865Z,41.36
2022-08-28T07:49:08.945Z,41.49
2022-08-28T07:51:35.756Z,42.90
2022-08-28T07:54:04.143Z,42.53
2022-08-28T07:56:31.784Z,42.59
2022-08-28T07:59:00.921Z,41.32
2022-08-28T08:01:30.626Z,40.71
2022-08-28T08:04:01.440Z,39.60
2022-08-28T08:06:33.731Z,38.63
2022-08-28T08:09:02.148Z,37.70
2022-08-28T08:11:32.530Z,36.56
2022-08-28T08:14:05.620Z,35.55
2022-08-28T08:16:38.728Z,34.23
2022-08-28T08:19:05.977Z,33.70
2022-08-28T08:21:32.710Z,33.34
2022-08-28T08:23:59.488Z,33.30
2022-08-28T08:26:30.127Z,33.21
2022-08-28T08:28:59.251Z,32.95
2022-08-28T08:31:32.607Z,32.61
2022-08-28T08:34:02.121Z,32.36
2022-08-28T08:36:29.146Z,32.11
2022-08-28T08:38:59.967Z,32.25
2022-08-28T08:41:41.485Z,32.53
2022-08-28T08:44:18.042Z,32.54
2022-08-28T08:47:16.568Z,32.43
2022-08-28T08:49:53.080Z,32.19
2022-08-28T08:52:52.467Z,32.11
2022-08-28T08:55:31.624Z,32.00
2022-08-28T08:58:07.722Z,31.64
2022-08-28T09:00:39.948Z,31.44
2022-08-28T09:03:45.891Z,31.55
2022-08-28T09:06:40.665Z,31.78
2022-08-28T09:09:21.731Z,31.59
2022-08-28T09:12:00.716Z,31.11
2022-08-28T09:14:44.297Z,31.05
2022-08-28T09:17:12.439Z,30.62
2022-08-28T09:19:39.206Z,30.90
2022-08-28T09:22:05.845Z,31.23
2022-08-28T09:24:36.767Z,31.39
2022-08-28T09:27:19.357Z,31.43
2022-08-28T09:29:54.669Z,30.98
2022-08-28T09:32:25.714Z,30.85
2022-08-28T09:35:06.816Z,30.79
2022-08-28T09:37:35.277Z,30.86
2022-08-28T09:40:50.933Z,31.01
2022-08-28T09:43:27.069Z,30.97
2022-08-28T09:45:59.755Z,30.80
2022-08-28T09:48:52.861Z,31.16
2022-08-28T09:51:22.026Z,31.17
2022-08-28T09:53:57.334Z,31.16
2022-08-28T09:56:39.866Z,31.25
2022-08-28T09:59:20.688Z,31.47
2022-08-28T10:01:50.017Z,30.93
2022-08-28T10:04:31.584Z,30.57
2022-08-28T10:07:33.812Z,30.59
2022-08-28T10:10:24.969Z,30.77
2022-08-28T10:13:14.936Z,30.70
2022-08-28T10:15:43.521Z,30.74
2022-08-28T10:18:45.811Z,30.70
2022-08-28T10:21:24.126Z,30.82
2022-08-28T10:24:02.617Z,30.99
2022-08-28T10:26:52.516Z,30.83
2022-08-28T10:29:33.687Z,30.86
2022-08-28T10:32:16.057Z,30.37
2022-08-28T10:35:20.881Z,30.81
2022-08-28T10:38:19.540Z,30.98
2022-08-28T10:41:03.469Z,30.97
2022-08-28T10:43:34.217Z,31.09
2022-08-28T10:46:41.770Z,30.75
2022-08-28T10:49:33.369Z,30.99
2022-08-28T10:52:04.720Z,30.76
2022-08-28T10:54:40.851Z,31.08
2022-08-28T10:57:17.451Z,31.26
2022-08-28T10:59:46.807Z,31.48
2022-08-28T11:02:14.258Z,31.40
2022-08-28T11:04:41.002Z,31.15
2022-08-28T11:07:09.873Z,31.35
2022-08-28T11:09:46.049Z,31.52
2022-08-28T11:12:20.086Z,31.49
2022-08-28T11:14:49.490Z,31.54
2022-08-28T11:17:39.629Z,31.66
2022-08-28T11:20:12.104Z,31.79
2022-08-28T11:22:43.089Z,31.73
2022-08-28T11:25:32.530Z,31.75
2022-08-28T11:28:22.453Z,31.75
2022-08-28T11:30:58.952Z,31.66
2022-08-28T11:33:49.896Z,31.64
2022-08-28T11:36:19.689Z,31.37
2022-08-28T11:38:46.912Z,31.16
2022-08-28T11:41:36.601Z,31.07
2022-08-28T11:44:18.602Z,31.50
2022-08-28T11:46:47.508Z,31.76
2022-08-28T11:49:26.611Z,31.86
2022-08-28T11:52:23.908Z,31.73
2022-08-28T11:54:52.474Z,31.65
2022-08-28T11:57:24.752Z,31.52
2022-08-28T12:00:00.771Z,31.40
2022-08-28T12:02:44.220Z,31.78
2022-08-28T12:05:17.330Z,32.06
2022-08-28T12:07:47.123Z,32.29
2022-08-28T12:10:22.926Z,32.37
2022-08-28T12:12:55.869Z,32.29
2022-08-28T12:15:28.782Z,32.34
2022-08-28T12:18:00.928Z,31.94
2022-08-28T12:20:35.942Z,31.82
2022-08-28T12:23:24.536Z,31.90
2022-08-28T12:26:03.297Z,32.14
2022-08-28T12:28:51.073Z,31.67
2022-08-28T12:32:12.391Z,31.54
2022-08-28T12:34:51.159Z,31.18
2022-08-28T12:37:39.532Z,31.39
2022-08-28T12:40:25.581Z,31.69
2022-08-28T12:42:56.449Z,31.67
2022-08-28T12:45:31.197Z,32.05
2022-08-28T12:48:01.839Z,32.37
2022-08-28T12:50:31.143Z,32.67
2022-08-28T12:53:02.789Z,33.04
2022-08-28T12:55:29.489Z,32.85
2022-08-28T12:58:02.050Z,32.63
2022-08-28T13:00:37.317Z,32.58
2022-08-28T13:03:07.571Z,32.32
2022-08-28T13:05:39.771Z,32.20
2022-08-28T13:08:09.360Z,32.21
2022-08-28T13:10:49.228Z,32.09
2022-08-28T13:13:40.560Z,32.49
2022-08-28T13:16:10.235Z,32.43
2022-08-28T13:18:47.556Z,32.75
2022-08-28T13:21:33.466Z,32.62
2022-08-28T13:24:24.215Z,32.25
2022-08-28T13:27:05.969Z,32.24
2022-08-28T13:29:33.078Z,32.31
2022-08-28T13:32:06.839Z,32.16
2022-08-28T13:34:37.978Z,32.46
2022-08-28T13:37:14.990Z,32.44
2022-08-28T13:39:47.417Z,32.93
2022-08-28T13:42:16.284Z,33.18
2022-08-28T13:44:57.853Z,33.34
2022-08-28T13:47:25.695Z,33.26
2022-08-28T13:49:52.391Z,32.86
2022-08-28T13:52:19.789Z,32.55
2022-08-28T13:54:47.019Z,32.32
2022-08-28T13:57:14.091Z,32.38
2022-08-28T13:59:41.596Z,32.71
2022-08-28T14:02:29.878Z,32.43
2022-08-28T14:04:56.834Z,31.75
2022-08-28T14:07:23.761Z,31.25
2022-08-28T14:09:55.506Z,31.08
2022-08-28T14:12:24.956Z,30.92
2022-08-28T14:14:59.792Z,30.84
2022-08-28T14:17:26.638Z,30.98
2022-08-28T14:19:53.282Z,31.04
2022-08-28T14:22:19.929Z,31.03
2022-08-28T14:24:46.815Z,31.17
2022-08-28T14:27:13.355Z,31.19
2022-08-28T14:29:39.943Z,31.21
2022-08-28T14:32:06.760Z,31.21
2022-08-28T14:34:33.715Z,30.86
2022-08-28T14:37:01.753Z,30.65
2022-08-28T14:39:28.495Z,30.32
2022-08-28T14:41:55.471Z,29.79
2022-08-28T14:44:23.535Z,29.40
2022-08-28T14:46:51.786Z,29.08
2022-08-28T14:49:23.653Z,29.31
2022-08-28T14:51:50.808Z,29.24
2022-08-28T14:54:19.804Z,29.01
2022-08-28T14:56:47.977Z,29.05
2022-08-28T14:59:21.906Z,29.25
2022-08-28T15:01:51.094Z,29.25
2022-08-28T15:04:20.102Z,29.20
2022-08-28T15:06:46.695Z,29.23
2022-08-28T15:09:14.192Z,29.52
2022-08-28T15:11:42.227Z,29.71
2022-08-28T15:14:09.108Z,29.78
2022-08-28T15:16:39.353Z,29.85
2022-08-28T15:19:07.145Z,29.83
2022-08-28T15:21:38.601Z,30.06
2022-08-28T15:24:06.804Z,30.18
2022-08-28T15:26:34.178Z,29.83
2022-08-28T15:29:03.596Z,29.63
2022-08-28T15:31:31.592Z,29.69
2022-08-28T15:34:03.267Z,29.52
2022-08-28T15:36:29.864Z,29.34
2022-08-28T15:39:16.797Z,29.05
2022-08-28T15:41:46.985Z,29.00
2022-08-28T15:44:15.119Z,28.90
2022-08-28T15:46:41.846Z,28.92
2022-08-28T15:49:09.268Z,28.68
2022-08-28T15:51:36.126Z,28.70
2022-08-28T15:54:02.767Z,28.78
2022-08-28T15:56:29.252Z,28.86
2022-08-28T15:58:56.023Z,28.79
2022-08-28T16:01:23.360Z,28.74
2022-08-28T16:03:49.939Z,28.64
2022-08-28T16:06:19.954Z,28.31
2022-08-28T16:08:48.192Z,28.28
2022-08-28T16:11:19.584Z,28.03
2022-08-28T16:13:46.554Z,28.07
2022-08-28T16:16:13.138Z,27.84
2022-08-28T16:18:39.661Z,27.86
2022-08-28T16:21:06.544Z,27.63
2022-08-28T16:23:33.411Z,27.67
2022-08-28T16:26:00.631Z,27.63
2022-08-28T16:28:27.695Z,27.28
2022-08-28T16:30:54.364Z,27.00
2022-08-28T16:33:22.275Z,27.01
2022-08-28T16:35:55.011Z,27.04
2022-08-28T16:38:23.496Z,27.09
2022-08-28T16:40:50.044Z,27.14
2022-08-28T16:43:16.697Z,27.21
2022-08-28T16:45:44.923Z,27.13
2022-08-28T16:48:12.828Z,26.95
2022-08-28T16:50:41.129Z,26.83
2022-08-28T16:53:08.448Z,26.76
2022-08-28T16:55:35.105Z,26.66
2022-08-28T16:58:01.754Z,26.60
2022-08-28T17:00:28.493Z,26.49
2022-08-28T17:02:55.032Z,26.35
2022-08-28T17:05:21.680Z,26.23
2022-08-28T17:07:48.292Z,25.94
2022-08-28T17:10:19.809Z,25.83
2022-08-28T17:12:46.497Z,25.73
2022-08-28T17:15:13.842Z,25.77
2022-08-28T17:17:41.114Z,25.77
2022-08-28T17:20:08.809Z,25.66
2022-08-28T17:22:35.484Z,25.59
2022-08-28T17:25:03.162Z,25.46
2022-08-28T17:27:32.034Z,25.38
2022-08-28T17:29:59.816Z,25.31
2022-08-28T17:32:26.353Z,25.00
2022-08-28T17:34:53.237Z,24.62
2022-08-28T17:37:20.828Z,24.19
2022-08-28T17:39:48.074Z,23.59
2022-08-28T17:42:15.725Z,23.08
2022-08-28T17:44:42.808Z,22.68
2022-08-28T17:47:09.611Z,22.29
2022-08-28T17:49:36.143Z,22.08
2022-08-28T17:52:03.438Z,21.90
2022-08-28T17:54:30.286Z,21.80
2022-08-28T17:56:57.320Z,21.75
2022-08-28T17:59:25.096Z,21.60
2022-08-28T18:01:51.991Z,21.44
2022-08-28T18:04:23.898Z,21.30
2022-08-28T18:06:54.092Z,21.24
2022-08-28T18:09:21.563Z,21.23
2022-08-28T18:11:48.553Z,21.18
2022-08-28T18:14:15.459Z,21.03
2022-08-28T18:16:42.135Z,21.00
2022-08-28T18:19:10.314Z,20.81
2022-08-28T18:21:38.483Z,20.70
2022-08-28T18:24:05.310Z,20.62
2022-08-28T18:26:31.957Z,20.57
2022-08-28T18:29:01.838Z,20.57
2022-08-28T18:31:28.683Z,20.47
2022-08-28T18:33:55.561Z,20.45
2022-08-28T18:36:23.306Z,20.39
2022-08-28T18:38:50.697Z,20.28
2022-08-28T18:41:19.666Z,20.29
2022-08-28T18:43:46.887Z,20.23
2022-08-28T18:46:14.332Z,20.19
2022-08-28T18:48:41.717Z,20.22
2022-08-28T18:51:10.497Z,20.24
2022-08-28T18:53:37.668Z,20.21
2022-08-28T18:56:06.047Z,20.19
2022-08-28T18:58:33.101Z,20.11
2022-08-28T19:01:01.031Z,20.15
2022-08-28T19:03:27.927Z,20.05
2022-08-28T19:05:57.693Z,19.97
2022-08-28T19:08:25.317Z,19.90
2022-08-28T19:10:52.237Z,19.87
2022-08-28T19:13:20.780Z,19.72
2022-08-28T19:15:52.671Z,19.69
2022-08-28T19:18:19.869Z,19.72
2022-08-28T19:20:47.173Z,19.68
2022-08-28T19:23:17.415Z,19.71
2022-08-28T19:25:44.976Z,19.57
2022-08-28T19:28:11.683Z,19.51
2022-08-28T19:30:38.226Z,19.57
2022-08-28T19:33:05.889Z,19.54
2022-08-28T19:35:33.767Z,19.46
2022-08-28T19:38:01.319Z,19.49
2022-08-28T19:40:27.975Z,19.43
2022-08-28T19:42:54.953Z,19.40
2022-08-28T19:45:22.130Z,19.34
2022-08-28T19:47:49.077Z,19.32
2022-08-28T19:50:16.188Z,19.35
2022-08-28T19:52:43.472Z,19.33
2022-08-28T19:55:17.692Z,19.37
2022-08-28T19:57:46.194Z,19.44
2022-08-28T20:00:15.160Z,19.42
2022-08-28T20:02:41.894Z,19.34
2022-08-28T20:05:09.042Z,19.33
2022-08-28T20:07:35.688Z,19.26
2022-08-28T20:10:02.445Z,19.31
2022-08-28T20:12:29.107Z,19.39
2022-08-28T20:15:01.289Z,19.35
2022-08-28T20:17:29.981Z,19.38
2022-08-28T20:20:02.322Z,19.45
2022-08-28T20:22:29.573Z,19.46
2022-08-28T20:24:57.072Z,19.52
2022-08-28T20:27:23.792Z,19.47
2022-08-28T20:29:50.523Z,19.51
2022-08-28T20:32:17.180Z,19.58
2022-08-28T20:34:44.697Z,19.70
2022-08-28T20:37:11.361Z,19.68
2022-08-28T20:39:41.450Z,19.72
2022-08-28T20:42:09.537Z,19.75
2022-08-28T20:44:36.185Z,19.69
2022-08-28T20:47:03.168Z,19.68
2022-08-28T20:49:29.776Z,19.57
2022-08-28T20:51:58.475Z,19.61
2022-08-28T20:54:30.953Z,19.68
2022-08-28T20:57:02.515Z,19.69
2022-08-28T20:59:37.240Z,19.70
2022-08-28T21:02:09.552Z,19.63
2022-08-28T21:04:38.806Z,19.54
2022-08-28T21:07:06.201Z,19.59
2022-08-28T21:09:39.604Z,19.56
2022-08-28T21:12:19.895Z,19.62
2022-08-28T21:14:51.401Z,19.52
2022-08-28T21:17:29.991Z,19.56
2022-08-28T21:20:02.959Z,19.53
2022-08-28T21:22:31.951Z,19.43
2022-08-28T21:24:59.823Z,19.39
2022-08-28T21:27:26.968Z,19.39
2022-08-28T21:29:58.678Z,19.45
2022-08-28T21:32:26.765Z,19.40
2022-08-28T21:34:54.523Z,19.40
2022-08-28T21:37:21.262Z,19.35
2022-08-28T21:39:47.929Z,19.36
2022-08-28T21:42:14.458Z,19.29
2022-08-28T21:44:41.007Z,19.38
2022-08-28T21:47:18.930Z,19.39
2022-08-28T21:49:48.016Z,19.44
2022-08-28T21:52:14.644Z,19.37
2022-08-28T21:54:41.280Z,19.46
2022-08-28T21:57:07.906Z,19.42
2022-08-28T21:59:37.882Z,19.38
2022-08-28T22:02:05.471Z,19.23
2022-08-28T22:04:32.425Z,19.18
2022-08-28T22:06:59.010Z,19.25
2022-08-28T22:09:25.841Z,19.11
2022-08-28T22:11:52.473Z,19.04
2022-08-28T22:14:19.002Z,18.91
2022-08-28T22:16:46.370Z,18.88
2022-08-28T22:19:12.961Z,18.76
2022-08-28T22:21:58.469Z,18.73
2022-08-28T22:24:25.002Z,18.71
2022-08-28T22:26:57.321Z,18.68
2022-08-28T22:29:24.433Z,18.74
2022-08-28T22:31:51.071Z,18.76
2022-08-28T22:34:17.741Z,18.77
2022-08-28T22:36:44.483Z,18.77
2022-08-28T22:39:11.106Z,18.77
2022-08-28T22:41:37.688Z,18.79
2022-08-28T22:44:05.494Z,18.83
2022-08-28T22:46:31.961Z,18.84
2022-08-28T22:48:59.439Z,18.78
2022-08-28T22:51:26.302Z,18.80
2022-08-28T22:53:52.880Z,18.78
2022-08-28T22:56:20.436Z,18.73
2022-08-28T22:58:47.133Z,18.77
2022-08-28T23:01:19.716Z,18.77
2022-08-28T23:03:46.970Z,18.83
2022-08-28T23:06:14.013Z,18.82
2022-08-28T23:08:40.578Z,18.86
2022-08-28T23:11:07.239Z,18.84
2022-08-28T23:13:34.556Z,18.78
2022-08-28T23:16:01.484Z,18.80
2022-08-28T23:18:28.551Z,18.85
2022-08-28T23:20:55.414Z,19.01
2022-08-28T23:23:22.941Z,19.14
2022-08-28T23:25:50.437Z,19.29
2022-08-28T23:28:17.664Z,19.13
2022-08-28T23:30:48.591Z,19.08
2022-08-28T23:33:23.745Z,19.18
2022-08-28T23:35:51.958Z,19.30
2022-08-28T23:38:18.720Z,19.31
2022-08-28T23:40:46.066Z,19.32
2022-08-28T23:43:12.606Z,19.30
2022-08-28T23:45:41.270Z,19.39
2022-08-28T23:48:08.217Z,19.40
2022-08-28T23:50:34.829Z,19.31
2022-08-28T23:53:01.479Z,19.18
2022-08-28T23:55:28.109Z,19.19
2022-08-28T23:57:54.631Z,19.24
